Time,TemperatureF,DewpointF,PressureIn,WindDirection,WindDirectionDegrees,WindSpeedMPH,WindSpeedGustMPH,Humidity,HourlyPrecipIn,Conditions,Clouds,dailyrainin,SoftwareType,DateUTC
2013-09-27 00:00:00,68.9,67.7,29.92,SSE,151,0.0,15.0,96,0.00,,,0.00,Wunderground v.1.15,2013-09-27 05:00:00,
2013-09-27 00:05:00,69.0,68.1,29.92,SSE,152,0.0,15.0,97,0.00,,,0.00,Wunderground v.1.15,2013-09-27 05:05:00,
2013-09-27 00:15:00,68.6,67.7,29.92,SSE,151,0.0,15.0,97,0.00,,,0.00,Wunderground v.1.15,2013-09-27 05:15:00,
2013-09-27 00:20:00,68.6,67.7,29.92,SSE,151,0.0,15.0,97,0.00,,,0.00,Wunderground v.1.15,2013-09-27 05:20:00,
2013-09-27 00:25:00,68.6,67.7,29.92,SSE,152,0.0,15.0,97,0.00,,,0.00,Wunderground v.1.15,2013-09-27 05:25:00,
2013-09-27 00:35:00,68.8,68.2,29.93,SSE,152,0.0,15.0,98,0.00,,,0.00,Wunderground v.1.15,2013-09-27 05:35:00,
2013-09-27 00:40:00,68.6,67.7,29.93,SSE,152,0.0,15.0,97,0.00,,,0.00,Wunderground v.1.15,2013-09-27 05:40:00,
2013-09-27 00:45:00,68.5,67.6,29.93,SSE,151,0.0,15.0,97,0.00,,,0.00,Wunderground v.1.15,2013-09-27 05:45:00,
2013-09-27 00:50:00,68.4,67.5,29.93,SSE,151,0.0,15.0,97,0.00,,,0.00,Wunderground v.1.15,2013-09-27 05:50:00,
2013-09-27 00:55:00,68.2,67.3,29.93,SSE,152,0.0,15.0,97,0.00,,,0.00,Wunderground v.1.15,2013-09-27 05:55:00,
2013-09-27 01:00:00,68.1,67.2,29.92,SSE,152,0.0,15.0,97,0.00,,,0.00,Wunderground v.1.15,2013-09-27 06:00:00,
2013-09-27 01:10:00,67.8,66.9,29.92,SSE,151,0.0,15.0,97,0.00,,,0.00,Wunderground v.1.15,2013-09-27 06:10:00,
2013-09-27 01:15:00,67.7,66.8,29.92,SSE,152,0.0,15.0,97,0.00,,,0.00,Wunderground v.1.15,2013-09-27 06:15:00,
2013-09-27 01:20:00,67.9,67.3,29.93,SSE,151,0.0,15.0,98,0.00,,,0.00,Wunderground v.1.15,2013-09-27 06:20:00,
2013-09-27 01:25:00,67.8,66.9,29.92,SSE,152,0.0,15.0,97,0.00,,,0.00,Wunderground v.1.15,2013-09-27 06:25:00,
2013-09-27 01:30:00,67.6,66.7,29.93,SSE,151,0.0,15.0,97,0.00,,,0.00,Wunderground v.1.15,2013-09-27 06:30:00,
2013-09-27 01:40:00,67.3,66.4,29.93,SSE,151,0.0,15.0,97,0.00,,,0.00,Wunderground v.1.15,2013-09-27 06:40:00,
2013-09-27 01:45:00,67.1,66.2,29.92,SSE,152,0.0,15.0,97,0.00,,,0.00,Wunderground v.1.15,2013-09-27 06:45:00,
2013-09-27 01:50:00,67.1,66.2,29.92,SSE,151,0.0,15.0,97,0.00,,,0.00,Wunderground v.1.15,2013-09-27 06:50:00,
2013-09-27 01:55:00,67.0,66.1,29.92,SSE,151,0.0,15.0,97,0.00,,,0.00,Wunderground v.1.15,2013-09-27 06:55:00,
2013-09-27 02:00:00,66.9,66.0,29.92,SSE,151,0.0,15.0,97,0.00,,,0.00,Wunderground v.1.15,2013-09-27 07:00:00,
2013-09-27 02:05:00,66.9,66.3,29.92,SSE,151,0.0,15.0,98,0.00,,,0.00,Wunderground v.1.15,2013-09-27 07:05:00,
2013-09-27 02:15:00,67.0,66.4,29.92,SSE,151,0.0,15.0,98,0.00,,,0.00,Wunderground v.1.15,2013-09-27 07:15:00,
2013-09-27 02:20:00,66.9,66.0,29.92,SSE,151,0.0,15.0,97,0.00,,,0.00,Wunderground v.1.15,2013-09-27 07:20:00,
2013-09-27 02:25:00,66.8,66.2,29.92,SSE,151,0.0,15.0,98,0.00,,,0.00,Wunderground v.1.15,2013-09-27 07:25:00,
2013-09-27 02:35:00,66.7,65.8,29.92,SSE,151,0.0,15.0,97,0.00,,,0.00,Wunderground v.1.15,2013-09-27 07:35:00,
2013-09-27 02:45:00,66.4,65.5,29.92,SSE,151,0.0,15.0,97,0.00,,,0.00,Wunderground v.1.15,2013-09-27 07:45:00,
2013-09-27 02:50:00,66.3,65.4,29.92,SSE,151,0.0,15.0,97,0.00,,,0.00,Wunderground v.1.15,2013-09-27 07:50:00,
2013-09-27 02:55:00,66.3,65.4,29.92,SSE,151,0.0,15.0,97,0.00,,,0.00,Wunderground v.1.15,2013-09-27 07:55:00,
2013-09-27 03:00:00,66.4,65.5,29.92,SSE,152,0.0,15.0,97,0.00,,,0.00,Wunderground v.1.15,2013-09-27 08:00:00,
2013-09-27 03:05:00,66.6,65.7,29.92,SSE,151,0.0,15.0,97,0.00,,,0.00,Wunderground v.1.15,2013-09-27 08:05:00,
2013-09-27 03:10:00,66.6,65.7,29.92,SSE,151,0.0,15.0,97,0.00,,,0.00,Wunderground v.1.15,2013-09-27 08:10:00,
2013-09-27 03:20:00,66.6,65.7,29.92,SSE,151,0.0,15.0,97,0.00,,,0.00,Wunderground v.1.15,2013-09-27 08:20:00,
2013-09-27 03:25:00,66.6,65.7,29.92,SSE,152,0.0,15.0,97,0.00,,,0.00,Wunderground v.1.15,2013-09-27 08:25:00,
2013-09-27 03:30:00,66.5,65.6,29.92,SSE,151,0.0,15.0,97,0.00,,,0.00,Wunderground v.1.15,2013-09-27 08:30:00,
2013-09-27 03:35:00,66.4,65.5,29.92,SSE,151,0.0,15.0,97,0.00,,,0.00,Wunderground v.1.15,2013-09-27 08:35:00,
2013-09-27 03:40:00,66.4,65.8,29.92,SSE,151,0.0,15.0,98,0.00,,,0.00,Wunderground v.1.15,2013-09-27 08:40:00,
2013-09-27 03:45:00,66.3,65.7,29.92,SSE,151,0.0,15.0,98,0.00,,,0.00,Wunderground v.1.15,2013-09-27 08:45:00,
2013-09-27 03:55:00,66.2,65.6,29.92,SSE,151,0.0,15.0,98,0.00,,,0.00,Wunderground v.1.15,2013-09-27 08:55:00,
2013-09-27 04:00:00,66.2,65.6,29.92,SSE,151,0.0,15.0,98,0.00,,,0.00,Wunderground v.1.15,2013-09-27 09:00:00,
2013-09-27 04:05:00,66.0,65.4,29.92,SSE,151,0.0,15.0,98,0.00,,,0.00,Wunderground v.1.15,2013-09-27 09:05:00,
2013-09-27 04:10:00,65.9,65.3,29.92,SSE,151,0.0,15.0,98,0.00,,,0.00,Wunderground v.1.15,2013-09-27 09:10:00,
2013-09-27 04:15:00,65.9,65.3,29.93,SSE,151,0.0,15.0,98,0.00,,,0.00,Wunderground v.1.15,2013-09-27 09:15:00,
2013-09-27 04:20:00,65.9,65.3,29.93,SSE,151,0.0,15.0,98,0.00,,,0.00,Wunderground v.1.15,2013-09-27 09:20:00,
2013-09-27 04:25:00,65.6,65.0,29.93,SSE,151,0.0,15.0,98,0.00,,,0.00,Wunderground v.1.15,2013-09-27 09:25:00,
2013-09-27 04:30:00,65.5,64.9,29.93,SSE,151,0.0,15.0,98,0.00,,,0.00,Wunderground v.1.15,2013-09-27 09:30:00,
2013-09-27 04:35:00,65.6,65.0,29.93,SSE,151,0.0,15.0,98,0.00,,,0.00,Wunderground v.1.15,2013-09-27 09:35:00,
2013-09-27 04:40:00,65.5,64.9,29.93,SSE,151,0.0,15.0,98,0.00,,,0.00,Wunderground v.1.15,2013-09-27 09:40:00,
2013-09-27 04:45:00,65.4,64.8,29.93,SSE,151,0.0,15.0,98,0.00,,,0.00,Wunderground v.1.15,2013-09-27 09:45:00,
2013-09-27 04:55:00,65.5,64.9,29.93,SSE,151,0.0,15.0,98,0.00,,,0.00,Wunderground v.1.15,2013-09-27 09:55:00,
2013-09-27 05:00:00,65.4,64.8,29.93,SSE,152,0.0,15.0,98,0.00,,,0.00,Wunderground v.1.15,2013-09-27 10:00:00,
2013-09-27 05:05:00,65.3,64.7,29.93,SSE,151,0.0,15.0,98,0.00,,,0.00,Wunderground v.1.15,2013-09-27 10:05:00,
2013-09-27 05:10:00,65.2,64.6,29.94,SSE,151,0.0,15.0,98,0.00,,,0.00,Wunderground v.1.15,2013-09-27 10:10:00,
2013-09-27 05:15:00,65.1,64.5,29.94,SSE,151,0.0,15.0,98,0.00,,,0.00,Wunderground v.1.15,2013-09-27 10:15:00,
2013-09-27 05:25:00,64.9,64.6,29.94,SSE,151,0.0,15.0,99,0.00,,,0.00,Wunderground v.1.15,2013-09-27 10:25:00,
2013-09-27 05:30:00,64.9,64.3,29.94,SSE,151,0.0,15.0,98,0.00,,,0.00,Wunderground v.1.15,2013-09-27 10:30:00,
2013-09-27 05:35:00,64.8,64.2,29.94,SSE,151,0.0,15.0,98,0.00,,,0.00,Wunderground v.1.15,2013-09-27 10:35:00,
2013-09-27 05:40:00,64.6,64.0,29.94,SSE,151,0.0,15.0,98,0.00,,,0.00,Wunderground v.1.15,2013-09-27 10:40:00,
2013-09-27 05:45:00,64.6,64.0,29.94,SSE,151,0.0,15.0,98,0.00,,,0.00,Wunderground v.1.15,2013-09-27 10:45:00,
2013-09-27 05:50:00,64.5,64.2,29.94,SSE,151,0.0,15.0,99,0.00,,,0.00,Wunderground v.1.15,2013-09-27 10:50:00,
2013-09-27 06:00:00,64.5,63.9,29.95,SSE,152,0.0,15.0,98,0.00,,,0.00,Wunderground v.1.15,2013-09-27 11:00:00,
2013-09-27 06:05:00,64.5,64.2,29.95,SSE,151,0.0,15.0,99,0.00,,,0.00,Wunderground v.1.15,2013-09-27 11:05:00,
2013-09-27 06:10:00,64.5,64.2,29.95,SSE,151,0.0,15.0,99,0.00,,,0.00,Wunderground v.1.15,2013-09-27 11:10:00,
2013-09-27 06:15:00,64.5,64.2,29.96,SSE,151,0.0,15.0,99,0.00,,,0.00,Wunderground v.1.15,2013-09-27 11:15:00,
2013-09-27 06:20:00,64.5,64.2,29.96,SSE,151,0.0,15.0,99,0.00,,,0.00,Wunderground v.1.15,2013-09-27 11:20:00,
2013-09-27 06:30:00,64.7,64.4,29.97,SSE,151,0.0,15.0,99,0.00,,,0.00,Wunderground v.1.15,2013-09-27 11:30:00,
2013-09-27 06:35:00,64.5,64.2,29.97,ESE,110,0.0,15.0,99,0.00,,,0.00,Wunderground v.1.15,2013-09-27 11:35:00,
2013-09-27 06:40:00,64.6,64.3,29.97,ESE,110,0.0,15.0,99,0.00,,,0.00,Wunderground v.1.15,2013-09-27 11:40:00,
2013-09-27 06:45:00,64.8,64.5,29.97,ESE,110,0.0,15.0,99,0.00,,,0.00,Wunderground v.1.15,2013-09-27 11:45:00,
2013-09-27 06:50:00,64.9,64.6,29.97,ESE,110,0.0,15.0,99,0.00,,,0.00,Wunderground v.1.15,2013-09-27 11:50:00,
2013-09-27 06:55:00,64.9,64.6,29.98,ESE,110,0.0,15.0,99,0.00,,,0.00,Wunderground v.1.15,2013-09-27 11:55:00,
2013-09-27 07:05:00,65.2,64.9,29.98,ESE,109,0.0,15.0,99,0.00,,,0.00,Wunderground v.1.15,2013-09-27 12:05:00,
2013-09-27 07:10:00,65.3,65.0,29.98,ESE,107,0.0,15.0,99,0.00,,,0.00,Wunderground v.1.15,2013-09-27 12:10:00,
2013-09-27 07:15:00,65.6,65.3,29.98,NNE,13,1.0,15.0,99,0.00,,,0.00,Wunderground v.1.15,2013-09-27 12:15:00,
2013-09-27 07:20:00,65.8,65.2,29.98,NNE,13,0.0,15.0,98,0.00,,,0.00,Wunderground v.1.15,2013-09-27 12:20:00,
2013-09-27 07:25:00,66.2,65.6,29.98,NNE,13,0.0,15.0,98,0.00,,,0.00,Wunderground v.1.15,2013-09-27 12:25:00,
2013-09-27 07:30:00,66.7,66.1,29.98,NNE,14,0.0,15.0,98,0.00,,,0.00,Wunderground v.1.15,2013-09-27 12:30:00,
2013-09-27 07:35:00,67.3,66.7,29.98,NNE,14,0.0,15.0,98,0.00,,,0.00,Wunderground v.1.15,2013-09-27 12:35:00,
2013-09-27 07:40:00,67.9,67.0,29.98,NNE,14,0.0,15.0,97,0.00,,,0.00,Wunderground v.1.15,2013-09-27 12:40:00,
2013-09-27 07:50:00,69.5,68.3,29.99,NNE,14,0.0,15.0,96,0.00,,,0.00,Wunderground v.1.15,2013-09-27 12:50:00,
2013-09-27 07:55:00,70.5,68.4,29.99,NNE,13,0.0,15.0,93,0.00,,,0.00,Wunderground v.1.15,2013-09-27 12:55:00,
2013-09-27 08:00:00,71.0,68.2,29.99,NNE,15,0.0,15.0,91,0.00,,,0.00,Wunderground v.1.15,2013-09-27 13:00:00,
2013-09-27 08:05:00,71.5,68.1,29.99,SE,126,0.0,15.0,89,0.00,,,0.00,Wunderground v.1.15,2013-09-27 13:05:00,
2013-09-27 08:10:00,72.0,68.6,30.00,SE,139,0.0,15.0,89,0.00,,,0.01,Wunderground v.1.15,2013-09-27 13:10:00,
2013-09-27 08:15:00,72.1,68.0,30.00,SSE,155,0.0,15.0,87,0.00,,,0.01,Wunderground v.1.15,2013-09-27 13:15:00,
2013-09-27 08:20:00,72.1,68.3,30.00,ESE,120,0.0,15.0,88,0.00,,,0.01,Wunderground v.1.15,2013-09-27 13:20:00,
2013-09-27 08:25:00,72.6,68.5,30.00,ESE,121,0.0,15.0,87,0.00,,,0.01,Wunderground v.1.15,2013-09-27 13:25:00,
2013-09-27 08:30:00,72.9,68.8,30.00,East,94,1.0,15.0,87,0.00,,,0.01,Wunderground v.1.15,2013-09-27 13:30:00,
2013-09-27 08:40:00,73.4,68.6,30.01,ESE,105,1.0,15.0,85,0.00,,,0.01,Wunderground v.1.15,2013-09-27 13:40:00,
2013-09-27 08:45:00,73.4,69.0,30.01,ESE,110,2.0,15.0,86,0.00,,,0.01,Wunderground v.1.15,2013-09-27 13:45:00,
2013-09-27 08:50:00,73.7,68.9,30.01,East,88,2.0,15.0,85,0.00,,,0.01,Wunderground v.1.15,2013-09-27 13:50:00,
2013-09-27 08:55:00,73.8,68.7,30.01,East,94,2.0,15.0,84,0.00,,,0.01,Wunderground v.1.15,2013-09-27 13:55:00,
2013-09-27 09:00:00,74.1,69.0,30.01,East,88,2.0,2.0,84,0.00,,,0.01,Wunderground v.1.15,2013-09-27 14:00:00,
2013-09-27 09:10:00,75.7,70.2,30.01,East,87,1.0,15.0,83,0.00,,,0.01,Wunderground v.1.15,2013-09-27 14:10:00,
2013-09-27 09:15:00,76.2,70.7,30.01,SSE,165,1.0,15.0,83,0.00,,,0.01,Wunderground v.1.15,2013-09-27 14:15:00,
2013-09-27 09:20:00,76.8,70.2,30.01,East,94,1.0,15.0,80,0.00,,,0.01,Wunderground v.1.15,2013-09-27 14:20:00,
2013-09-27 09:25:00,77.1,70.5,30.01,East,100,1.0,15.0,80,0.00,,,0.01,Wunderground v.1.15,2013-09-27 14:25:00,
2013-09-27 09:30:00,77.9,70.5,30.01,East,81,1.0,15.0,78,0.00,,,0.01,Wunderground v.1.15,2013-09-27 14:30:00,
2013-09-27 09:35:00,77.9,70.5,30.01,East,86,2.0,15.0,78,0.00,,,0.01,Wunderground v.1.15,2013-09-27 14:35:00,
2013-09-27 09:45:00,78.1,70.3,30.01,ENE,77,2.0,15.0,77,0.00,,,0.01,Wunderground v.1.15,2013-09-27 14:45:00,
2013-09-27 09:50:00,78.9,71.1,30.01,East,87,2.0,15.0,77,0.00,,,0.01,Wunderground v.1.15,2013-09-27 14:50:00,
2013-09-27 09:55:00,79.4,70.8,30.01,SSE,153,2.0,15.0,75,0.00,,,0.01,Wunderground v.1.15,2013-09-27 14:55:00,
2013-09-27 10:00:00,79.7,71.1,30.01,South,174,2.0,2.0,75,0.00,,,0.01,Wunderground v.1.15,2013-09-27 15:00:00,
2013-09-27 10:05:00,79.9,70.1,30.01,ESE,103,2.0,15.0,72,0.00,,,0.01,Wunderground v.1.15,2013-09-27 15:05:00,
2013-09-27 10:15:00,80.2,69.9,30.01,NE,53,2.0,15.0,71,0.00,,,0.01,Wunderground v.1.15,2013-09-27 15:15:00,
2013-09-27 10:20:00,80.8,70.5,30.01,East,99,2.0,15.0,71,0.00,,,0.01,Wunderground v.1.15,2013-09-27 15:20:00,
2013-09-27 10:25:00,81.6,70.4,30.01,SSE,165,2.0,15.0,69,0.00,,,0.01,Wunderground v.1.15,2013-09-27 15:25:00,
2013-09-27 10:30:00,82.5,70.4,30.01,ESE,119,2.0,15.0,67,0.00,,,0.01,Wunderground v.1.15,2013-09-27 15:30:00,
2013-09-27 10:35:00,82.5,70.0,30.01,SE,139,2.0,15.0,66,0.00,,,0.01,Wunderground v.1.15,2013-09-27 15:35:00,
2013-09-27 10:40:00,83.1,70.6,30.01,SSE,155,2.0,15.0,66,0.00,,,0.01,Wunderground v.1.15,2013-09-27 15:40:00,
2013-09-27 10:50:00,83.0,69.1,30.01,East,91,2.0,2.0,63,0.00,,,0.01,Wunderground v.1.15,2013-09-27 15:50:00,
2013-09-27 10:55:00,83.4,69.5,30.01,ENE,77,2.0,5.0,63,0.00,,,0.01,Wunderground v.1.15,2013-09-27 15:55:00,
2013-09-27 11:00:00,83.9,70.0,30.01,ESE,110,2.0,15.0,63,0.00,,,0.01,Wunderground v.1.15,2013-09-27 16:00:00,
2013-09-27 11:05:00,84.4,70.4,30.01,SSE,148,2.0,15.0,63,0.00,,,0.01,Wunderground v.1.15,2013-09-27 16:05:00,
2013-09-27 11:10:00,85.6,69.6,30.01,SSE,162,2.0,2.0,59,0.00,,,0.01,Wunderground v.1.15,2013-09-27 16:10:00,
2013-09-27 11:20:00,87.3,69.7,30.00,SSW,202,2.0,15.0,56,0.00,,,0.01,Wunderground v.1.15,2013-09-27 16:20:00,
2013-09-27 11:25:00,86.7,67.5,30.01,East,81,3.0,15.0,53,0.00,,,0.01,Wunderground v.1.15,2013-09-27 16:25:00,
2013-09-27 11:30:00,86.4,67.2,30.00,SSE,167,3.0,15.0,53,0.00,,,0.01,Wunderground v.1.15,2013-09-27 16:30:00,
2013-09-27 11:35:00,86.3,68.2,30.00,SE,127,2.0,15.0,55,0.00,,,0.01,Wunderground v.1.15,2013-09-27 16:35:00,
2013-09-27 11:40:00,86.3,68.2,30.00,ESE,115,2.0,15.0,55,0.00,,,0.01,Wunderground v.1.15,2013-09-27 16:40:00,
2013-09-27 11:45:00,87.5,67.1,30.00,ESE,112,3.0,15.0,51,0.00,,,0.01,Wunderground v.1.15,2013-09-27 16:45:00,
2013-09-27 11:55:00,88.4,63.7,30.00,West,271,2.0,15.0,44,0.00,,,0.01,Wunderground v.1.15,2013-09-27 16:55:00,
2013-09-27 12:00:00,87.8,66.8,30.00,SW,236,2.0,15.0,50,0.00,,,0.01,Wunderground v.1.15,2013-09-27 17:00:00,
2013-09-27 12:05:00,88.7,67.7,30.00,SSE,165,2.0,15.0,50,0.00,,,0.01,Wunderground v.1.15,2013-09-27 17:05:00,
2013-09-27 12:10:00,89.5,66.0,30.00,SSE,162,2.0,15.0,46,0.00,,,0.01,Wunderground v.1.15,2013-09-27 17:10:00,
2013-09-27 12:15:00,88.4,66.2,30.00,East,99,3.0,15.0,48,0.00,,,0.01,Wunderground v.1.15,2013-09-27 17:15:00,
2013-09-27 12:20:00,88.7,66.5,29.99,SW,219,2.0,15.0,48,0.00,,,0.01,Wunderground v.1.15,2013-09-27 17:20:00,
2013-09-27 12:25:00,88.4,67.4,29.99,South,179,1.0,15.0,50,0.00,,,0.01,Wunderground v.1.15,2013-09-27 17:25:00,
2013-09-27 12:30:00,88.3,67.3,29.99,SE,127,1.0,15.0,50,0.00,,,0.01,Wunderground v.1.15,2013-09-27 17:30:00,
2013-09-27 12:35:00,87.2,66.3,29.99,East,101,2.0,15.0,50,0.00,,,0.01,Wunderground v.1.15,2013-09-27 17:35:00,
2013-09-27 12:40:00,87.2,66.9,29.99,NNE,26,2.0,15.0,51,0.00,,,0.01,Wunderground v.1.15,2013-09-27 17:40:00,
2013-09-27 12:45:00,87.2,67.4,29.98,NNW,329,2.0,15.0,52,0.00,,,0.01,Wunderground v.1.15,2013-09-27 17:45:00,
2013-09-27 12:55:00,88.0,67.0,29.98,West,259,3.0,15.0,50,0.00,,,0.01,Wunderground v.1.15,2013-09-27 17:55:00,
2013-09-27 13:00:00,88.6,67.6,29.98,NE,48,3.0,15.0,50,0.00,,,0.01,Wunderground v.1.15,2013-09-27 18:00:00,
2013-09-27 13:05:00,87.3,65.8,29.98,SE,140,3.0,15.0,49,0.00,,,0.01,Wunderground v.1.15,2013-09-27 18:05:00,
2013-09-27 13:10:00,87.0,66.1,29.98,NNW,345,3.0,15.0,50,0.00,,,0.01,Wunderground v.1.15,2013-09-27 18:10:00,
2013-09-27 13:15:00,87.4,67.6,29.97,WNW,282,3.0,15.0,52,0.00,,,0.01,Wunderground v.1.15,2013-09-27 18:15:00,
2013-09-27 13:20:00,86.9,66.0,29.97,WSW,245,3.0,3.0,50,0.00,,,0.01,Wunderground v.1.15,2013-09-27 18:20:00,
2013-09-27 13:30:00,86.9,66.6,29.97,ENE,66,2.0,15.0,51,0.00,,,0.01,Wunderground v.1.15,2013-09-27 18:30:00,
2013-09-27 13:35:00,87.0,67.2,29.97,East,89,3.0,15.0,52,0.00,,,0.01,Wunderground v.1.15,2013-09-27 18:35:00,
2013-09-27 13:40:00,87.5,66.0,29.97,East,101,3.0,3.0,49,0.00,,,0.01,Wunderground v.1.15,2013-09-27 18:40:00,
2013-09-27 13:45:00,88.1,66.5,29.96,ESE,117,3.0,15.0,49,0.00,,,0.01,Wunderground v.1.15,2013-09-27 18:45:00,
2013-09-27 13:50:00,88.5,66.3,29.96,SE,129,3.0,15.0,48,0.00,,,0.01,Wunderground v.1.15,2013-09-27 18:50:00,
2013-09-27 14:00:00,87.9,64.5,29.96,ESE,106,4.0,4.0,46,0.00,,,0.01,Wunderground v.1.15,2013-09-27 19:00:00,
2013-09-27 14:05:00,87.9,65.2,29.95,East,96,3.0,5.0,47,0.00,,,0.01,Wunderground v.1.15,2013-09-27 19:05:00,
2013-09-27 14:10:00,87.9,66.4,29.95,ESE,119,2.0,15.0,49,0.00,,,0.01,Wunderground v.1.15,2013-09-27 19:10:00,
2013-09-27 14:15:00,88.2,65.4,29.95,SE,144,3.0,15.0,47,0.00,,,0.01,Wunderground v.1.15,2013-09-27 19:15:00,
2013-09-27 14:20:00,89.3,65.8,29.95,South,171,2.0,15.0,46,0.00,,,0.01,Wunderground v.1.15,2013-09-27 19:20:00,
2013-09-27 14:25:00,90.4,64.9,29.95,South,181,2.0,15.0,43,0.00,,,0.01,Wunderground v.1.15,2013-09-27 19:25:00,
2013-09-27 14:35:00,89.2,65.7,29.94,East,83,3.0,15.0,46,0.00,,,0.01,Wunderground v.1.15,2013-09-27 19:35:00,
2013-09-27 14:40:00,88.0,65.2,29.94,NE,38,4.0,4.0,47,0.00,,,0.01,Wunderground v.1.15,2013-09-27 19:40:00,
2013-09-27 14:45:00,87.4,66.5,29.94,NNE,25,3.0,15.0,50,0.00,,,0.01,Wunderground v.1.15,2013-09-27 19:45:00,
2013-09-27 14:50:00,87.6,66.1,29.94,NW,325,2.0,15.0,49,0.00,,,0.01,Wunderground v.1.15,2013-09-27 19:50:00,
2013-09-27 14:55:00,86.9,66.0,29.94,ENE,61,3.0,15.0,50,0.00,,,0.01,Wunderground v.1.15,2013-09-27 19:55:00,
2013-09-27 15:05:00,86.8,65.3,29.94,NE,43,3.0,15.0,49,0.00,,,0.01,Wunderground v.1.15,2013-09-27 20:05:00,
2013-09-27 15:10:00,87.7,65.6,29.94,NE,34,3.0,15.0,48,0.00,,,0.01,Wunderground v.1.15,2013-09-27 20:10:00,
2013-09-27 15:15:00,88.0,65.8,29.94,NE,53,3.0,15.0,48,0.00,,,0.01,Wunderground v.1.15,2013-09-27 20:15:00,
2013-09-27 15:20:00,88.7,65.3,29.94,SW,231,3.0,3.0,46,0.00,,,0.01,Wunderground v.1.15,2013-09-27 20:20:00,
2013-09-27 15:25:00,88.9,66.1,29.93,ESE,120,4.0,4.0,47,0.00,,,0.01,Wunderground v.1.15,2013-09-27 20:25:00,
2013-09-27 15:30:00,89.3,64.5,29.93,SSW,206,3.0,3.0,44,0.00,,,0.01,Wunderground v.1.15,2013-09-27 20:30:00,
2013-09-27 15:40:00,90.2,66.0,29.93,SSE,167,2.0,15.0,45,0.00,,,0.01,Wunderground v.1.15,2013-09-27 20:40:00,
2013-09-27 15:45:00,90.2,64.7,29.93,South,188,2.0,15.0,43,0.00,,,0.01,Wunderground v.1.15,2013-09-27 20:45:00,
2013-09-27 15:50:00,90.1,65.2,29.93,East,89,3.0,3.0,44,0.00,,,0.01,Wunderground v.1.15,2013-09-27 20:50:00,
2013-09-27 15:55:00,90.1,65.9,29.93,ENE,58,3.0,15.0,45,0.00,,,0.01,Wunderground v.1.15,2013-09-27 20:55:00,
2013-09-27 16:00:00,89.6,66.1,29.93,ESE,121,3.0,15.0,46,0.00,,,0.01,Wunderground v.1.15,2013-09-27 21:00:00,
2013-09-27 16:10:00,88.9,64.2,29.93,SE,126,4.0,4.0,44,0.00,,,0.01,Wunderground v.1.15,2013-09-27 21:10:00,
2013-09-27 16:15:00,89.0,64.9,29.93,East,84,3.0,15.0,45,0.00,,,0.01,Wunderground v.1.15,2013-09-27 21:15:00,
2013-09-27 16:20:00,89.4,65.3,29.93,SE,146,2.0,15.0,45,0.00,,,0.01,Wunderground v.1.15,2013-09-27 21:20:00,
2013-09-27 16:25:00,89.0,65.5,29.93,ENE,64,2.0,15.0,46,0.00,,,0.01,Wunderground v.1.15,2013-09-27 21:25:00,
2013-09-27 16:30:00,88.4,65.0,29.93,ENE,60,3.0,15.0,46,0.00,,,0.01,Wunderground v.1.15,2013-09-27 21:30:00,
2013-09-27 16:35:00,88.2,64.8,29.93,East,94,4.0,15.0,46,0.00,,,0.01,Wunderground v.1.15,2013-09-27 21:35:00,
2013-09-27 16:45:00,88.5,65.7,29.93,SSE,150,3.0,15.0,47,0.00,,,0.01,Wunderground v.1.15,2013-09-27 21:45:00,
2013-09-27 16:50:00,87.8,65.7,29.93,SE,134,3.0,15.0,48,0.00,,,0.01,Wunderground v.1.15,2013-09-27 21:50:00,
2013-09-27 16:55:00,87.2,65.7,29.93,SE,146,3.0,15.0,49,0.00,,,0.01,Wunderground v.1.15,2013-09-27 21:55:00,
2013-09-27 17:00:00,87.5,66.6,29.93,ESE,123,3.0,15.0,50,0.00,,,0.01,Wunderground v.1.15,2013-09-27 22:00:00,
2013-09-27 17:05:00,88.0,67.0,29.93,SE,143,3.0,15.0,50,0.00,,,0.01,Wunderground v.1.15,2013-09-27 22:05:00,
2013-09-27 17:15:00,87.7,65.6,29.93,SE,129,4.0,15.0,48,0.00,,,0.01,Wunderground v.1.15,2013-09-27 22:15:00,
2013-09-27 17:20:00,87.5,66.6,29.93,ESE,120,4.0,4.0,50,0.00,,,0.01,Wunderground v.1.15,2013-09-27 22:20:00,
2013-09-27 17:25:00,87.7,67.3,29.93,ENE,73,3.0,15.0,51,0.00,,,0.01,Wunderground v.1.15,2013-09-27 22:25:00,
2013-09-27 17:30:00,87.5,66.6,29.93,ESE,120,3.0,15.0,50,0.00,,,0.01,Wunderground v.1.15,2013-09-27 22:30:00,
2013-09-27 17:35:00,87.3,67.0,29.93,East,82,3.0,15.0,51,0.00,,,0.01,Wunderground v.1.15,2013-09-27 22:35:00,
2013-09-27 17:40:00,87.1,67.3,29.93,SE,134,3.0,3.0,52,0.00,,,0.01,Wunderground v.1.15,2013-09-27 22:40:00,
2013-09-27 17:45:00,87.1,67.9,29.93,SE,139,2.0,15.0,53,0.00,,,0.01,Wunderground v.1.15,2013-09-27 22:45:00,
2013-09-27 17:50:00,86.9,66.6,29.94,SSE,163,2.0,15.0,51,0.00,,,0.01,Wunderground v.1.15,2013-09-27 22:50:00,
2013-09-27 17:55:00,86.6,66.9,29.94,ESE,117,3.0,15.0,52,0.00,,,0.01,Wunderground v.1.15,2013-09-27 22:55:00,
2013-09-27 18:00:00,86.1,67.0,29.94,SE,132,3.0,15.0,53,0.00,,,0.01,Wunderground v.1.15,2013-09-27 23:00:00,
2013-09-27 18:10:00,85.6,67.6,29.94,SE,146,2.0,2.0,55,0.00,,,0.01,Wunderground v.1.15,2013-09-27 23:10:00,
2013-09-27 18:15:00,85.2,67.7,29.94,ESE,108,1.0,15.0,56,0.00,,,0.01,Wunderground v.1.15,2013-09-27 23:15:00,
2013-09-27 18:20:00,84.7,66.7,29.94,SE,129,2.0,2.0,55,0.00,,,0.01,Wunderground v.1.15,2013-09-27 23:20:00,
2013-09-27 18:25:00,84.2,66.8,29.94,East,89,2.0,15.0,56,0.00,,,0.01,Wunderground v.1.15,2013-09-27 23:25:00,
2013-09-27 18:30:00,83.7,66.3,29.94,East,99,2.0,2.0,56,0.00,,,0.01,Wunderground v.1.15,2013-09-27 23:30:00,
2013-09-27 18:35:00,83.3,66.5,29.94,ESE,108,2.0,15.0,57,0.00,,,0.01,Wunderground v.1.15,2013-09-27 23:35:00,
2013-09-27 18:45:00,82.5,65.7,29.94,ESE,103,1.0,15.0,57,0.00,,,0.01,Wunderground v.1.15,2013-09-27 23:45:00,
2013-09-27 18:50:00,82.2,67.4,29.94,ESE,103,1.0,1.0,61,0.00,,,0.01,Wunderground v.1.15,2013-09-27 23:50:00,
2013-09-27 18:55:00,81.5,67.2,29.94,ESE,103,0.0,15.0,62,0.00,,,0.01,Wunderground v.1.15,2013-09-27 23:55:00,
2013-09-27 19:00:00,80.8,66.6,29.94,ESE,103,0.0,15.0,62,0.00,,,0.01,Wunderground v.1.15,2013-09-28 00:00:00,
2013-09-27 19:05:00,80.2,66.9,29.94,ESE,103,0.0,15.0,64,0.00,,,0.01,Wunderground v.1.15,2013-09-28 00:05:00,
2013-09-27 19:10:00,79.6,69.0,29.94,ESE,103,0.0,15.0,70,0.00,,,0.01,Wunderground v.1.15,2013-09-28 00:10:00,
2013-09-27 19:15:00,78.8,68.6,29.94,ESE,103,0.0,15.0,71,0.00,,,0.01,Wunderground v.1.15,2013-09-28 00:15:00,
2013-09-27 19:25:00,77.9,67.3,29.94,ESE,103,0.0,15.0,70,0.00,,,0.01,Wunderground v.1.15,2013-09-28 00:25:00,
2013-09-27 19:30:00,77.4,66.8,29.94,ESE,103,0.0,15.0,70,0.00,,,0.01,Wunderground v.1.15,2013-09-28 00:30:00,
2013-09-27 19:35:00,76.9,67.6,29.94,ESE,103,0.0,15.0,73,0.00,,,0.01,Wunderground v.1.15,2013-09-28 00:35:00,
2013-09-27 19:40:00,76.5,69.1,29.94,ESE,103,0.0,15.0,78,0.00,,,0.01,Wunderground v.1.15,2013-09-28 00:40:00,
2013-09-27 19:45:00,76.4,69.8,29.94,ESE,103,0.0,15.0,80,0.00,,,0.01,Wunderground v.1.15,2013-09-28 00:45:00,
2013-09-27 19:55:00,75.4,69.5,29.95,ESE,103,0.0,15.0,82,0.00,,,0.01,Wunderground v.1.15,2013-09-28 00:55:00,
2013-09-27 20:00:00,75.0,69.5,29.95,ESE,103,0.0,15.0,83,0.00,,,0.01,Wunderground v.1.15,2013-09-28 01:00:00,
2013-09-27 20:05:00,74.6,69.4,29.95,ESE,117,0.0,15.0,84,0.00,,,0.01,Wunderground v.1.15,2013-09-28 01:05:00,
2013-09-27 20:10:00,74.0,69.2,29.95,SE,129,0.0,15.0,85,0.00,,,0.01,Wunderground v.1.15,2013-09-28 01:10:00,
2013-09-27 20:15:00,73.5,68.4,29.95,SE,129,0.0,15.0,84,0.00,,,0.01,Wunderground v.1.15,2013-09-28 01:15:00,
2013-09-27 20:20:00,73.4,68.6,29.95,SE,129,0.0,15.0,85,0.00,,,0.01,Wunderground v.1.15,2013-09-28 01:20:00,
2013-09-27 20:30:00,73.2,69.1,29.96,SE,129,0.0,15.0,87,0.00,,,0.01,Wunderground v.1.15,2013-09-28 01:30:00,
2013-09-27 20:35:00,73.1,69.0,29.96,SE,129,0.0,15.0,87,0.00,,,0.01,Wunderground v.1.15,2013-09-28 01:35:00,
2013-09-27 20:40:00,73.1,69.3,29.96,SE,129,0.0,15.0,88,0.00,,,0.01,Wunderground v.1.15,2013-09-28 01:40:00,
2013-09-27 20:45:00,73.0,69.2,29.96,SE,129,0.0,15.0,88,0.00,,,0.01,Wunderground v.1.15,2013-09-28 01:45:00,
2013-09-27 20:50:00,72.8,69.7,29.96,SE,129,0.0,15.0,90,0.00,,,0.01,Wunderground v.1.15,2013-09-28 01:50:00,
2013-09-27 21:00:00,72.7,69.6,29.97,SE,129,0.0,15.0,90,0.00,,,0.01,Wunderground v.1.15,2013-09-28 02:00:00,
2013-09-27 21:05:00,72.4,69.0,29.97,SE,129,0.0,15.0,89,0.00,,,0.01,Wunderground v.1.15,2013-09-28 02:05:00,
2013-09-27 21:10:00,72.1,69.0,29.97,SE,129,0.0,15.0,90,0.00,,,0.01,Wunderground v.1.15,2013-09-28 02:10:00,
2013-09-27 21:15:00,72.0,69.2,29.97,SE,129,0.0,15.0,91,0.00,,,0.01,Wunderground v.1.15,2013-09-28 02:15:00,
2013-09-27 21:20:00,72.0,69.2,29.97,SE,129,0.0,15.0,91,0.00,,,0.01,Wunderground v.1.15,2013-09-28 02:20:00,
2013-09-27 21:25:00,71.8,68.7,29.97,SE,129,0.0,15.0,90,0.00,,,0.01,Wunderground v.1.15,2013-09-28 02:25:00,
2013-09-27 21:35:00,71.5,68.7,29.97,SE,129,0.0,15.0,91,0.00,,,0.01,Wunderground v.1.15,2013-09-28 02:35:00,
2013-09-27 21:40:00,71.3,68.9,29.97,SE,129,0.0,15.0,92,0.00,,,0.01,Wunderground v.1.15,2013-09-28 02:40:00,
2013-09-27 21:45:00,71.3,68.9,29.97,SE,129,0.0,15.0,92,0.00,,,0.01,Wunderground v.1.15,2013-09-28 02:45:00,
2013-09-27 21:50:00,71.1,68.7,29.97,SE,129,0.0,15.0,92,0.00,,,0.01,Wunderground v.1.15,2013-09-28 02:50:00,
2013-09-27 21:55:00,71.0,68.6,29.97,SE,129,0.0,15.0,92,0.00,,,0.01,Wunderground v.1.15,2013-09-28 02:55:00,
2013-09-27 22:00:00,70.8,68.4,29.98,SE,129,0.0,15.0,92,0.00,,,0.01,Wunderground v.1.15,2013-09-28 03:00:00,
2013-09-27 22:05:00,70.7,68.6,29.98,SE,129,0.0,15.0,93,0.00,,,0.01,Wunderground v.1.15,2013-09-28 03:05:00,
2013-09-27 22:10:00,70.6,68.5,29.98,SE,130,0.0,15.0,93,0.00,,,0.01,Wunderground v.1.15,2013-09-28 03:10:00,
2013-09-27 22:15:00,70.5,68.4,29.98,SE,127,0.0,15.0,93,0.00,,,0.01,Wunderground v.1.15,2013-09-28 03:15:00,
2013-09-27 22:20:00,70.0,67.6,29.98,ESE,102,1.0,15.0,92,0.00,,,0.01,Wunderground v.1.15,2013-09-28 03:20:00,
2013-09-27 22:25:00,69.6,67.5,29.98,SE,130,1.0,15.0,93,0.00,,,0.01,Wunderground v.1.15,2013-09-28 03:25:00,
2013-09-27 22:35:00,69.6,67.5,29.98,ESE,123,0.0,15.0,93,0.00,,,0.01,Wunderground v.1.15,2013-09-28 03:35:00,
2013-09-27 22:40:00,70.0,67.9,29.98,SE,130,0.0,15.0,93,0.00,,,0.01,Wunderground v.1.15,2013-09-28 03:40:00,
2013-09-27 22:45:00,70.4,68.0,29.98,ESE,105,0.0,15.0,92,0.00,,,0.01,Wunderground v.1.15,2013-09-28 03:45:00,
2013-09-27 22:50:00,70.5,67.7,29.98,ESE,105,1.0,1.0,91,0.00,,,0.01,Wunderground v.1.15,2013-09-28 03:50:00,
2013-09-27 22:55:00,70.5,67.7,29.98,ESE,105,0.0,15.0,91,0.00,,,0.01,Wunderground v.1.15,2013-09-28 03:55:00,
2013-09-27 23:00:00,70.6,67.8,29.98,ESE,105,0.0,15.0,91,0.00,,,0.01,Wunderground v.1.15,2013-09-28 04:00:00,
2013-09-27 23:05:00,71.0,68.2,29.98,ESE,105,0.0,15.0,91,0.00,,,0.01,Wunderground v.1.15,2013-09-28 04:05:00,
2013-09-27 23:10:00,71.3,68.5,29.98,ESE,105,0.0,15.0,91,0.00,,,0.01,Wunderground v.1.15,2013-09-28 04:10:00,
2013-09-27 23:15:00,71.5,68.7,29.98,ESE,105,0.0,15.0,91,0.00,,,0.01,Wunderground v.1.15,2013-09-28 04:15:00,
2013-09-27 23:20:00,71.8,69.0,29.98,ESE,103,0.0,15.0,91,0.00,,,0.01,Wunderground v.1.15,2013-09-28 04:20:00,
2013-09-27 23:25:00,72.1,69.3,29.98,ESE,103,0.0,15.0,91,0.00,,,0.01,Wunderground v.1.15,2013-09-28 04:25:00,
2013-09-27 23:30:00,71.8,69.0,29.98,ESE,103,0.0,15.0,91,0.00,,,0.01,Wunderground v.1.15,2013-09-28 04:30:00,
2013-09-27 23:40:00,71.5,69.4,29.98,ESE,103,0.0,15.0,93,0.00,,,0.01,Wunderground v.1.15,2013-09-28 04:40:00,
2013-09-27 23:45:00,71.4,69.3,29.98,ESE,103,0.0,15.0,93,0.00,,,0.01,Wunderground v.1.15,2013-09-28 04:45:00,
2013-09-27 23:50:00,71.1,69.0,29.98,SE,129,0.0,15.0,93,0.00,,,0.01,Wunderground v.1.15,2013-09-28 04:50:00,
2013-09-27 23:55:00,70.6,68.5,29.98,SE,129,0.0,15.0,93,0.00,,,0.01,Wunderground v.1.15,2013-09-28 04:55:00,